createdAt,value
2022-08-17T00:00:35.006Z,98549.78
2022-08-17T00:03:19.095Z,98559.84
2022-08-17T00:06:08.670Z,98551.06
2022-08-17T00:08:48.178Z,98545.63
2022-08-17T00:11:25.282Z,98544.84
2022-08-17T00:13:59.378Z,98543.53
2022-08-17T00:16:56.345Z,98555.94
2022-08-17T00:19:26.470Z,98553.34
2022-08-17T00:22:31.938Z,98553.59
2022-08-17T00:24:46.027Z,98554.34
2022-08-17T00:27:13.876Z,98554.28
2022-08-17T00:29:42.380Z,98556.34
2022-08-17T00:33:15.409Z,98551.66
2022-08-17T00:34:58.292Z,98544.69
2022-08-17T00:37:26.058Z,98544.38
2022-08-17T00:39:53.837Z,98557.03
2022-08-17T00:42:21.590Z,98547.44
2022-08-17T00:44:49.409Z,98540.47
2022-08-17T00:47:17.358Z,98545.88
2022-08-17T00:49:45.223Z,98548.91
2022-08-17T00:52:20.641Z,98545.00
2022-08-17T00:54:54.105Z,98551.16
2022-08-17T00:57:31.233Z,98546.50
2022-08-17T01:00:14.634Z,98551.66
2022-08-17T01:02:46.386Z,98549.34
2022-08-17T01:05:23.831Z,98539.25
2022-08-17T01:07:54.358Z,98543.41
2022-08-17T01:11:00.335Z,98544.69
2022-08-17T01:13:42.562Z,98549.59
2022-08-17T01:16:21.864Z,98541.25
2022-08-17T01:18:54.402Z,98558.59
2022-08-17T01:21:40.713Z,98557.03
2022-08-17T01:24:08.808Z,98559.09
2022-08-17T01:26:40.425Z,98559.38
2022-08-17T01:29:08.577Z,98558.09
2022-08-17T01:31:43.196Z,98559.91
2022-08-17T01:34:14.531Z,98565.06
2022-08-17T01:36:47.317Z,98559.66
2022-08-17T01:39:40.652Z,98563.28
2022-08-17T01:42:23.930Z,98558.84
2022-08-17T01:44:56.853Z,98556.94
2022-08-17T01:47:25.201Z,98547.66
2022-08-17T01:49:52.984Z,98555.91
2022-08-17T01:52:22.141Z,98553.78
2022-08-17T01:54:52.457Z,98551.16
2022-08-17T01:57:20.299Z,98558.38
2022-08-17T01:59:48.438Z,98553.72
2022-08-17T02:02:30.475Z,98550.31
2022-08-17T02:04:59.829Z,98555.69
2022-08-17T02:07:28.351Z,98553.13
2022-08-17T02:09:56.693Z,98562.09
2022-08-17T02:12:39.479Z,98562.84
2022-08-17T02:15:10.442Z,98565.38
2022-08-17T02:17:40.760Z,98564.84
2022-08-17T02:20:10.859Z,98559.69
2022-08-17T02:22:42.345Z,98565.38
2022-08-17T02:25:15.143Z,98570.06
2022-08-17T02:27:43.294Z,98568.72
2022-08-17T02:31:00.666Z,98574.13
2022-08-17T02:33:04.212Z,98565.34
2022-08-17T02:35:35.193Z,98564.84
2022-08-17T02:38:06.268Z,98568.47
2022-08-17T02:40:35.714Z,98567.94
2022-08-17T02:43:05.347Z,98568.00
2022-08-17T02:45:33.373Z,98571.03
2022-08-17T02:48:01.581Z,98565.28
2022-08-17T02:50:29.772Z,98566.19
2022-08-17T02:53:02.236Z,98569.75
2022-08-17T02:55:37.267Z,98577.13
2022-08-17T02:58:05.860Z,98581.00
2022-08-17T03:00:41.109Z,98583.81
2022-08-17T03:03:11.290Z,98588.19
2022-08-17T03:05:39.998Z,98577.81
2022-08-17T03:08:10.481Z,98581.66
2022-08-17T03:10:42.690Z,98586.56
2022-08-17T03:13:12.970Z,98599.47
2022-08-17T03:15:45.221Z,98590.13
2022-08-17T03:18:20.102Z,98591.09
2022-08-17T03:21:01.778Z,98596.72
2022-08-17T03:23:31.298Z,98592.03
2022-08-17T03:26:00.840Z,98597.69
2022-08-17T03:28:28.716Z,98593.06
2022-08-17T03:30:56.661Z,98590.44
2022-08-17T03:33:24.563Z,98614.31
2022-08-17T03:35:52.702Z,98601.44
2022-08-17T03:38:21.357Z,98600.47
2022-08-17T03:40:56.852Z,98608.22
2022-08-17T03:43:31.612Z,98602.00
2022-08-17T03:46:28.659Z,98599.59
2022-08-17T03:49:26.835Z,98604.88
2022-08-17T03:52:16.010Z,98608.41
2022-08-17T03:55:03.879Z,98608.34
2022-08-17T03:57:32.597Z,98617.09
2022-08-17T04:00:00.508Z,98615.28
2022-08-17T04:02:34.000Z,98608.78
2022-08-17T04:05:01.970Z,98619.38
2022-08-17T04:07:31.873Z,98615.25
2022-08-17T04:10:00.348Z,98618.84
2022-08-17T04:12:42.254Z,98627.59
2022-08-17T04:15:12.690Z,98621.66
2022-08-17T04:17:40.802Z,98625.72
2022-08-17T04:20:09.653Z,98620.28
2022-08-17T04:22:37.650Z,98615.81
2022-08-17T04:25:17.276Z,98625.81
2022-08-17T04:27:45.155Z,98622.97
2022-08-17T04:30:13.605Z,98625.22
2022-08-17T04:33:07.223Z,98632.63
2022-08-17T04:35:43.563Z,98621.31
2022-08-17T04:38:18.031Z,98630.34
2022-08-17T04:41:04.958Z,98623.94
2022-08-17T04:43:35.354Z,98619.38
2022-08-17T04:46:17.149Z,98638.34
2022-08-17T04:48:57.812Z,98634.09
2022-08-17T04:51:35.260Z,98635.72
2022-08-17T04:54:09.401Z,98630.66
2022-08-17T04:56:38.839Z,98632.25
2022-08-17T04:59:17.995Z,98635.41
2022-08-17T05:01:49.031Z,98634.47
2022-08-17T05:04:33.910Z,98641.72
2022-08-17T05:07:04.736Z,98641.28
2022-08-17T05:09:32.760Z,98642.34
2022-08-17T05:12:04.781Z,98645.63
2022-08-17T05:14:33.717Z,98643.66
2022-08-17T05:17:09.624Z,98640.16
2022-08-17T05:19:39.583Z,98647.22
2022-08-17T05:22:07.845Z,98643.41
2022-08-17T05:24:43.141Z,98644.28
2022-08-17T05:27:19.062Z,98635.31
2022-08-17T05:29:47.126Z,98640.53
2022-08-17T05:32:38.034Z,98642.44
2022-08-17T05:35:04.195Z,98646.38
2022-08-17T05:37:32.011Z,98636.88
2022-08-17T05:40:00.040Z,98637.72
2022-08-17T05:42:27.989Z,98637.47
2022-08-17T05:44:58.092Z,98643.50
2022-08-17T05:47:26.578Z,98640.16
2022-08-17T05:49:55.030Z,98647.72
2022-08-17T05:53:10.249Z,98647.28
2022-08-17T05:55:52.924Z,98641.66
2022-08-17T05:58:39.482Z,98642.00
2022-08-17T06:01:32.395Z,98634.25
2022-08-17T06:04:41.028Z,98637.16
2022-08-17T06:07:50.195Z,98639.25
2022-08-17T06:11:05.427Z,98634.41
2022-08-17T06:13:39.089Z,98632.59
2022-08-17T06:16:34.010Z,98627.94
2022-08-17T06:19:33.644Z,98635.19
2022-08-17T06:22:05.858Z,98635.41
2022-08-17T06:24:42.940Z,98625.28
2022-08-17T06:27:32.013Z,98628.63
2022-08-17T06:30:16.112Z,98639.19
2022-08-17T06:32:48.637Z,98632.91
2022-08-17T06:35:44.605Z,98626.09
2022-08-17T06:39:01.917Z,98620.00
2022-08-17T06:41:45.634Z,98619.88
2022-08-17T06:44:43.583Z,98613.78
2022-08-17T06:47:53.283Z,98615.72
2022-08-17T06:50:51.326Z,98617.56
2022-08-17T06:53:31.964Z,98616.63
2022-08-17T06:56:54.631Z,98613.81
2022-08-17T06:59:53.232Z,98620.50
2022-08-17T07:02:52.554Z,98613.97
2022-08-17T07:05:36.796Z,98610.72
2022-08-17T07:08:30.035Z,98610.84
2022-08-17T07:11:09.819Z,98613.75
2022-08-17T07:14:17.120Z,98607.53
2022-08-17T07:16:50.923Z,98601.81
2022-08-17T07:19:23.802Z,98603.06
2022-08-17T07:22:50.350Z,98608.56
2022-08-17T07:25:22.590Z,98600.19
2022-08-17T07:28:02.488Z,98601.75
2022-08-17T07:31:01.030Z,98592.09
2022-08-17T07:33:35.010Z,98592.22
2022-08-17T07:36:03.409Z,98599.25
2022-08-17T07:38:34.363Z,98606.13
2022-08-17T07:41:08.231Z,98600.34
2022-08-17T07:43:42.249Z,98602.44
2022-08-17T07:46:55.266Z,98595.88
2022-08-17T07:49:32.904Z,98597.47
2022-08-17T07:52:51.409Z,98601.63
2022-08-17T07:55:35.112Z,98591.31
2022-08-17T07:58:03.773Z,98588.28
2022-08-17T08:00:33.772Z,98599.81
2022-08-17T08:03:28.539Z,98593.19
2022-08-17T08:06:02.404Z,98594.09
2022-08-17T08:08:35.732Z,98577.16
2022-08-17T08:11:15.538Z,98581.91
2022-08-17T08:13:46.148Z,98582.38
2022-08-17T08:16:17.026Z,98585.88
2022-08-17T08:18:56.891Z,98579.53
2022-08-17T08:21:51.543Z,98580.13
2022-08-17T08:24:37.197Z,98577.94
2022-08-17T08:27:28.842Z,98576.38
2022-08-17T08:30:21.604Z,98575.06
2022-08-17T08:33:28.969Z,98573.19
2022-08-17T08:37:15.845Z,98582.38
2022-08-17T08:39:48.113Z,98570.28
2022-08-17T08:42:37.379Z,98576.84
2022-08-17T08:45:14.111Z,98571.97
2022-08-17T08:47:53.994Z,98569.84
2022-08-17T08:50:48.880Z,98575.97
2022-08-17T08:54:16.658Z,98571.97
2022-08-17T08:57:29.210Z,98572.94
2022-08-17T09:00:24.857Z,98571.03
2022-08-17T09:03:52.706Z,98565.03
2022-08-17T09:06:59.577Z,98567.84
2022-08-17T09:09:59.411Z,98580.69
2022-08-17T09:12:45.259Z,98570.19
2022-08-17T09:15:25.761Z,98572.03
2022-08-17T09:19:00.554Z,98568.59
2022-08-17T09:21:14.237Z,98561.19
2022-08-17T09:24:12.816Z,98575.19
2022-08-17T09:27:13.498Z,98567.13
2022-08-17T09:29:59.167Z,98570.88
2022-08-17T09:32:58.962Z,98565.56
2022-08-17T09:35:45.154Z,98567.59
2022-08-17T09:38:32.634Z,98575.72
2022-08-17T09:41:37.245Z,98573.19
2022-08-17T09:44:23.244Z,98573.94
2022-08-17T09:47:17.551Z,98569.22
2022-08-17T09:50:12.976Z,98572.00
2022-08-17T09:52:42.407Z,98561.94
2022-08-17T09:55:10.373Z,98562.56
2022-08-17T09:58:05.330Z,98573.59
2022-08-17T10:00:39.496Z,98557.97
2022-08-17T10:03:49.204Z,98566.13
2022-08-17T10:06:35.558Z,98562.06
2022-08-17T10:09:22.577Z,98557.25
2022-08-17T10:12:30.103Z,98566.88
2022-08-17T10:15:22.516Z,98562.13
2022-08-17T10:18:08.569Z,98557.75
2022-08-17T10:21:30.661Z,98559.72
2022-08-17T10:25:02.021Z,98563.66
2022-08-17T10:27:52.779Z,98559.94
2022-08-17T10:30:26.775Z,98553.03
2022-08-17T10:33:03.053Z,98554.88
2022-08-17T10:36:01.651Z,98542.25
2022-08-17T10:38:48.533Z,98543.66
2022-08-17T10:41:43.229Z,98540.81
2022-08-17T10:44:56.556Z,98536.25
2022-08-17T10:47:27.128Z,98528.34
2022-08-17T10:49:56.144Z,98538.09
2022-08-17T10:52:24.966Z,98536.53
2022-08-17T10:54:58.742Z,98544.16
2022-08-17T10:57:29.927Z,98549.44
2022-08-17T11:00:17.623Z,98534.72
2022-08-17T11:02:57.629Z,98539.09
2022-08-17T11:06:12.774Z,98537.81
2022-08-17T11:09:06.487Z,98543.97
2022-08-17T11:12:31.211Z,98545.41
2022-08-17T11:15:25.193Z,98533.53
2022-08-17T11:18:19.999Z,98537.00
2022-08-17T11:21:13.173Z,98526.97
2022-08-17T11:24:16.761Z,98528.56
2022-08-17T11:27:21.876Z,98531.38
2022-08-17T11:30:12.561Z,98522.84
2022-08-17T11:32:48.630Z,98523.41
2022-08-17T11:35:20.821Z,98520.72
2022-08-17T11:38:25.171Z,98527.50
2022-08-17T11:41:29.342Z,98507.97
2022-08-17T11:44:32.526Z,98502.00
2022-08-17T11:48:16.378Z,98496.34
2022-08-17T12:00:56.727Z,98495.31
2022-08-17T12:03:33.496Z,98494.84
2022-08-17T12:06:18.818Z,98491.47
2022-08-17T12:09:00.555Z,98494.03
2022-08-17T12:11:56.277Z,98489.31
2022-08-17T12:15:05.893Z,98494.00
2022-08-17T12:17:40.417Z,98500.66
2022-08-17T12:20:19.817Z,98495.16
2022-08-17T12:23:08.749Z,98487.56
2022-08-17T12:26:06.298Z,98484.47
2022-08-17T12:28:44.100Z,98483.91
2022-08-17T12:31:27.340Z,98490.97
2022-08-17T12:33:55.520Z,98484.41
2022-08-17T12:36:28.839Z,98490.22
2022-08-17T12:39:13.306Z,98477.28
2022-08-17T12:41:47.758Z,98477.69
2022-08-17T12:44:30.048Z,98482.22
2022-08-17T12:47:22.753Z,98478.53
2022-08-17T12:50:03.785Z,98475.25
2022-08-17T12:52:33.322Z,98471.69
2022-08-17T12:55:07.875Z,98471.00
2022-08-17T12:57:38.630Z,98466.31
2022-08-17T13:00:22.103Z,98473.72
2022-08-17T13:03:19.386Z,98470.06
2022-08-17T13:05:53.040Z,98468.28
2022-08-17T13:08:47.749Z,98464.97
2022-08-17T13:11:16.472Z,98466.13
2022-08-17T13:13:51.512Z,98462.31
2022-08-17T13:16:26.656Z,98459.69
2022-08-17T13:19:07.818Z,98447.63
2022-08-17T13:21:38.001Z,98449.66
2022-08-17T13:24:17.650Z,98452.38
2022-08-17T13:27:11.895Z,98449.50
2022-08-17T13:29:53.691Z,98442.78
2022-08-17T13:32:46.603Z,98438.59
2022-08-17T13:35:51.601Z,98439.94
2022-08-17T13:38:51.154Z,98437.91
2022-08-17T13:41:37.269Z,98433.75
2022-08-17T13:44:39.493Z,98431.13
2022-08-17T13:47:21.234Z,98433.41
2022-08-17T13:49:49.635Z,98445.66
2022-08-17T13:52:40.975Z,98433.28
2022-08-17T13:55:22.166Z,98415.88
2022-08-17T13:58:04.986Z,98414.34
2022-08-17T14:00:36.755Z,98423.28
2022-08-17T14:03:05.530Z,98412.59
2022-08-17T14:05:34.026Z,98418.38
2022-08-17T14:08:07.222Z,98427.47
2022-08-17T14:10:36.728Z,98421.38
2022-08-17T14:13:07.054Z,98415.22
2022-08-17T14:15:56.154Z,98416.91
2022-08-17T14:18:31.231Z,98415.09
2022-08-17T14:21:10.924Z,98414.31
2022-08-17T14:23:38.696Z,98400.72
2022-08-17T14:26:06.702Z,98397.59
2022-08-17T14:28:36.485Z,98399.75
2022-08-17T14:31:07.492Z,98406.91
2022-08-17T14:33:35.589Z,98412.81
2022-08-17T14:36:04.688Z,98412.06
2022-08-17T14:38:35.906Z,98408.78
2022-08-17T14:41:05.065Z,98400.25
2022-08-17T14:43:35.340Z,98411.88
2022-08-17T14:46:03.115Z,98399.13
2022-08-17T14:48:38.459Z,98403.22
2022-08-17T14:51:07.553Z,98405.38
2022-08-17T14:53:36.468Z,98414.41
2022-08-17T14:56:04.941Z,98409.94
2022-08-17T14:58:32.752Z,98400.25
2022-08-17T15:01:00.829Z,98404.91
2022-08-17T15:03:29.462Z,98402.97
2022-08-17T15:05:57.284Z,98412.56
2022-08-17T15:08:25.526Z,98410.75
2022-08-17T15:10:54.546Z,98397.75
2022-08-17T15:13:26.467Z,98402.97
2022-08-17T15:15:54.728Z,98411.44
2022-08-17T15:18:22.929Z,98403.97
2022-08-17T15:20:50.862Z,98392.16
2022-08-17T15:23:22.624Z,98403.97
2022-08-17T15:25:53.551Z,98403.25
2022-08-17T15:28:25.064Z,98389.38
2022-08-17T15:30:54.632Z,98392.88
2022-08-17T15:33:30.181Z,98403.97
2022-08-17T15:36:01.706Z,98399.34
2022-08-17T15:38:35.340Z,98401.16
2022-08-17T15:41:04.181Z,98401.13
2022-08-17T15:43:36.460Z,98399.19
2022-08-17T15:46:21.096Z,98403.22
2022-08-17T15:48:53.083Z,98409.25
2022-08-17T15:51:26.434Z,98402.97
2022-08-17T15:54:04.403Z,98411.78
2022-08-17T15:56:47.198Z,98395.19
2022-08-17T15:59:16.590Z,98410.81
2022-08-17T16:03:01.589Z,98414.03
2022-08-17T16:04:32.409Z,98420.97
2022-08-17T16:07:00.529Z,98409.19
2022-08-17T16:09:28.789Z,98422.84
2022-08-17T16:11:56.836Z,98423.78
2022-08-17T16:14:34.812Z,98427.00
2022-08-17T16:17:05.345Z,98428.78
2022-08-17T16:19:53.251Z,98421.09
2022-08-17T16:22:37.616Z,98431.88
2022-08-17T16:25:21.546Z,98427.94
2022-08-17T16:27:53.597Z,98427.84
2022-08-17T16:30:27.844Z,98428.41
2022-08-17T16:32:59.027Z,98429.09
2022-08-17T16:35:29.713Z,98423.06
2022-08-17T16:37:58.940Z,98429.84
2022-08-17T16:40:33.097Z,98429.44
2022-08-17T16:43:10.613Z,98433.59
2022-08-17T16:45:40.811Z,98439.72
2022-08-17T16:48:09.846Z,98433.22
2022-08-17T16:50:37.956Z,98437.97
2022-08-17T16:53:16.258Z,98438.84
2022-08-17T16:55:49.682Z,98439.22
2022-08-17T16:58:18.818Z,98437.22
2022-08-17T17:00:48.876Z,98441.91
2022-08-17T17:03:24.999Z,98448.13
2022-08-17T17:06:45.245Z,98442.84
2022-08-17T17:09:23.141Z,98444.09
2022-08-17T17:11:57.243Z,98454.16
2022-08-17T17:14:35.793Z,98450.00
2022-08-17T17:17:17.610Z,98451.50
2022-08-17T17:20:16.410Z,98458.50
2022-08-17T17:22:57.900Z,98460.97
2022-08-17T17:25:54.790Z,98467.34
2022-08-17T17:28:44.344Z,98472.03
2022-08-17T17:31:45.238Z,98470.41
2022-08-17T17:34:16.703Z,98478.16
2022-08-17T17:36:58.145Z,98471.91
2022-08-17T17:39:49.114Z,98483.78
2022-08-17T17:42:22.127Z,98479.50
2022-08-17T17:45:17.051Z,98486.16
2022-08-17T17:47:45.944Z,98494.00
2022-08-17T17:50:16.993Z,98500.00
2022-08-17T17:53:02.198Z,98490.63
2022-08-17T17:55:30.034Z,98498.63
2022-08-17T17:58:33.408Z,98502.53
2022-08-17T18:01:16.191Z,98512.53
2022-08-17T18:04:20.296Z,98507.44
2022-08-17T18:06:57.774Z,98515.25
2022-08-17T18:09:53.873Z,98518.69
2022-08-17T18:13:17.953Z,98530.94
2022-08-17T18:15:54.477Z,98538.72
2022-08-17T18:18:38.923Z,98538.19
2022-08-17T18:21:16.422Z,98542.78
2022-08-17T18:24:01.931Z,98543.97
2022-08-17T18:27:01.239Z,98540.63
2022-08-17T18:29:31.962Z,98547.34
2022-08-17T18:32:43.252Z,98558.78
2022-08-17T18:35:14.749Z,98553.66
2022-08-17T18:37:56.516Z,98558.25
2022-08-17T18:40:35.758Z,98556.03
2022-08-17T18:43:28.342Z,98568.72
2022-08-17T18:46:28.379Z,98560.94
2022-08-17T18:49:06.875Z,98566.44
2022-08-17T18:51:42.862Z,98570.66
2022-08-17T18:54:24.613Z,98568.75
2022-08-17T18:57:00.690Z,98593.88
2022-08-17T18:59:38.295Z,98592.03
2022-08-17T19:05:27.214Z,98582.69
2022-08-17T19:08:35.551Z,98577.69
2022-08-17T19:11:20.799Z,98584.81
2022-08-17T19:14:01.029Z,98591.94
2022-08-17T19:16:55.761Z,98594.16
2022-08-17T19:20:00.276Z,98597.19
2022-08-17T19:22:47.290Z,98591.13
2022-08-17T19:25:23.742Z,98603.38
2022-08-17T19:28:20.503Z,98606.78
2022-08-17T19:30:59.504Z,98607.59
2022-08-17T19:33:27.634Z,98607.91
2022-08-17T19:36:07.379Z,98616.38
2022-08-17T19:38:48.449Z,98613.94
2022-08-17T19:41:51.212Z,98615.97
2022-08-17T19:44:32.242Z,98609.16
2022-08-17T19:47:36.650Z,98604.59
2022-08-17T19:50:09.295Z,98611.41
2022-08-17T19:53:18.540Z,98608.91
2022-08-17T19:56:11.235Z,98610.16
2022-08-17T19:59:01.175Z,98606.41
2022-08-17T20:02:02.985Z,98607.31
2022-08-17T20:04:45.306Z,98610.25
2022-08-17T20:07:22.230Z,98607.78
2022-08-17T20:09:55.621Z,98611.47
2022-08-17T20:12:38.373Z,98616.47
2022-08-17T20:15:18.737Z,98617.56
2022-08-17T20:17:48.191Z,98612.44
2022-08-17T20:20:49.760Z,98612.22
2022-08-17T20:23:28.773Z,98607.56
2022-08-17T20:26:23.257Z,98612.81
2022-08-17T20:29:10.402Z,98616.25
2022-08-17T20:31:46.439Z,98611.63
2022-08-17T20:34:33.477Z,98615.56
2022-08-17T20:37:33.081Z,98610.69
2022-08-17T20:40:01.158Z,98608.97
2022-08-17T20:42:33.971Z,98617.63
2022-08-17T20:45:26.494Z,98611.66
2022-08-17T20:48:35.024Z,98616.59
2022-08-17T20:51:01.086Z,98613.00
2022-08-17T20:53:47.369Z,98615.94
2022-08-17T20:56:46.662Z,98622.75
2022-08-17T20:59:26.086Z,98621.00
2022-08-17T21:02:12.353Z,98612.47
2022-08-17T21:04:54.487Z,98611.50
2022-08-17T21:07:53.268Z,98616.94
2022-08-17T21:10:26.298Z,98603.97
2022-08-17T21:13:03.038Z,98599.31
2022-08-17T21:15:42.716Z,98606.81
2022-08-17T21:18:42.760Z,98614.13
2022-08-17T21:21:26.312Z,98612.66
2022-08-17T21:24:15.003Z,98614.00
2022-08-17T21:27:23.787Z,98605.78
2022-08-17T21:30:16.374Z,98615.19
2022-08-17T21:33:12.003Z,98612.59
2022-08-17T21:36:11.831Z,98604.84
2022-08-17T21:38:48.874Z,98599.69
2022-08-17T21:41:33.560Z,98604.91
2022-08-17T21:44:27.782Z,98608.03
2022-08-17T21:47:23.972Z,98613.78
2022-08-17T21:49:54.594Z,98616.41
2022-08-17T21:52:27.107Z,98626.00
2022-08-17T21:55:02.554Z,98626.81
2022-08-17T21:57:35.132Z,98629.41
2022-08-17T22:00:16.433Z,98637.44
2022-08-17T22:02:56.600Z,98639.75
2022-08-17T22:05:38.550Z,98648.59
2022-08-17T22:08:20.129Z,98658.16
2022-08-17T22:10:50.773Z,98646.78
2022-08-17T22:13:18.515Z,98640.06
2022-08-17T22:16:27.899Z,98640.09
2022-08-17T22:18:58.295Z,98639.53
2022-08-17T22:21:26.961Z,98642.41
2022-08-17T22:24:07.101Z,98654.34
2022-08-17T22:27:12.085Z,98657.19
2022-08-17T22:29:58.276Z,98662.38
2022-08-17T22:32:48.527Z,98656.38
2022-08-17T22:35:34.590Z,98660.03
2022-08-17T22:38:20.805Z,98664.72
2022-08-17T22:41:18.969Z,98674.81
2022-08-17T22:43:48.243Z,98672.22
2022-08-17T22:46:16.321Z,98677.41
2022-08-17T22:48:59.492Z,98675.31
2022-08-17T22:51:31.133Z,98679.16
2022-08-17T22:54:34.504Z,98681.25
2022-08-17T22:57:23.847Z,98694.19
2022-08-17T22:59:55.910Z,98687.72
2022-08-17T23:02:26.586Z,98682.78
2022-08-17T23:05:10.257Z,98687.19
2022-08-17T23:07:38.409Z,98692.63
2022-08-17T23:10:09.591Z,98701.94
2022-08-17T23:12:39.062Z,98685.09
2022-08-17T23:15:18.157Z,98697.28
2022-08-17T23:17:46.510Z,98687.91
2022-08-17T23:20:17.643Z,98696.47
2022-08-17T23:22:51.921Z,98684.00
2022-08-17T23:25:33.599Z,98681.94
2022-08-17T23:28:04.901Z,98687.91
2022-08-17T23:30:40.067Z,98685.53
2022-08-17T23:33:21.348Z,98698.44
2022-08-17T23:35:49.204Z,98689.38
2022-08-17T23:38:17.252Z,98692.44
2022-08-17T23:40:45.157Z,98686.19
2022-08-17T23:43:23.975Z,98684.59
2022-08-17T23:46:00.079Z,98673.00
2022-08-17T23:48:36.224Z,98680.78
2022-08-17T23:51:14.709Z,98675.38
2022-08-17T23:53:48.247Z,98671.19
2022-08-17T23:56:20.630Z,98666.03
2022-08-17T23:58:48.466Z,98651.00
